Nearby METAR Reports

 

KRSP - Nsf Thurmont, Maryland, USA
Distance from station: SE 8mi, 13km
Updated: Wed, 24-Jul-2024 11:54pm EDT
Clear
Clear
 Wind from varies
Wind: varies 7 mph , 11 km/h
Temperature: 72°F , 22°C
Dew Point: 70°F , 21°C
Humidity: 94%
Barometer: 30.16 inHg , 1021.3 hPa
Clouds: Clear
Visibility: 10 miles , 16 km
2024/07/25 03:54 KRSP 250354Z AUTO VRB06KT 10SM CLR 22/21 A3016 RMK AO2 SLP205 T02170206 PWINO
KHGR - Hagerstown, Maryland, USA
Distance from station: WSW 10mi, 16km
Updated: Wed, 24-Jul-2024 11:53pm EDT
Clear
Clear
 Wind from SW
Wind: SW 3 mph , 6 km/h
Temperature: 79°F , 26°C
Dew Point: 70°F , 21°C
Humidity: 74%
Barometer: 30.10 inHg , 1019.3 hPa
Clouds: Clear
Visibility: 10 miles , 16 km
2024/07/25 03:53 KHGR 250353Z AUTO 22003KT 10SM CLR 26/21 A3010 RMK AO2 SLP196 T02560211
KFDK - Frederick, Maryland, USA
Distance from station: SSE 25mi, 40km
Updated: Thu, 25-Jul-2024 12:15am EDT
Clear
Clear
 Wind from calm
Wind: Calm
Barometer: 30.10 inHg , 1019.3 hPa
Clouds: Clear
Visibility: 10 miles , 16 km
2024/07/25 04:15 KFDK 250415Z AUTO 00000KT 10SM CLR A3010 RMK AO2
 
KDMW - Carroll Cnty, Maryland, USA
Distance from station: ESE 31mi, 50km
Updated: Thu, 25-Jul-2024 12:00am EDT
Clear
Clear
 Wind from SSW
Wind: SSW 3 mph , 6 km/h
Temperature: 77°F , 25°C
Dew Point: 70°F , 21°C
Humidity: 79%
Barometer: 30.11 inHg , 1019.6 hPa
Clouds: Clear
Visibility: 10 miles , 16 km
2024/07/25 04:00 KDMW 250400Z AUTO 20003KT 10SM CLR 25/21 A3011 RMK AO2
KMRB - Martinsburg, West Virginia, USA
Distance from station: SW 33mi, 53km
Updated: Wed, 24-Jul-2024 11:53pm EDT
Clear
Clear
 Wind from SSW
Wind: SSW 5 mph , 7 km/h
Temperature: 73°F , 23°C
Dew Point: 70°F , 21°C
Humidity: 89%
Barometer: 30.09 inHg , 1019 hPa
Clouds: Clear
Visibility: 10 miles , 16 km
2024/07/25 03:53 KMRB 250353Z AUTO 21004KT 10SM CLR 23/21 A3009 RMK AO2 SLP184 T02280206
KTHV - York, Pennsylvania, USA
Distance from station: ENE 37mi, 60km
Updated: Wed, 24-Jul-2024 11:53pm EDT
Clear
Clear
 Wind from S
Wind: S 7 mph , 11 km/h
Temperature: 77°F , 25°C
Dew Point: 70°F , 21°C
Humidity: 79%
Barometer: 30.09 inHg , 1019 hPa
Clouds: Clear
Visibility: 10 miles , 16 km
2024/07/25 03:53 KTHV 250353Z AUTO 19006KT 10SM CLR 25/21 A3009 RMK AO2 SLP186 T02500206
 
KGAI - Gaithersburg, Maryland, USA
Distance from station: SSE 45mi, 72km
Updated: Wed, 24-Jul-2024 11:56pm EDT
Clear
Clear
 Wind from calm
Wind: Calm
Temperature: 73°F , 23°C
Dew Point: 73°F , 23°C
Humidity: 100%
Barometer: 30.11 inHg , 1019.6 hPa
Clouds: Clear
Visibility: 10 miles , 16 km
2024/07/25 03:56 KGAI 250356Z AUTO 00000KT 10SM CLR 23/23 A3011 RMK AO2 SLP205 T02330233
KJYO - Leesburg/Godfrey, Virginia, USA
Distance from station: S 47mi, 75km
Updated: Thu, 25-Jul-2024 12:15am EDT
Clear
Clear
 Wind from calm
Wind: Calm
Temperature: 73°F , 23°C
Dew Point: 73°F , 23°C
Humidity: 100%
Barometer: 30.12 inHg , 1020 hPa
Clouds: Clear
Visibility: 10 miles , 16 km
2024/07/25 04:15 KJYO 250415Z AUTO 00000KT 10SM CLR 23/23 A3012 RMK AO2
KCXY - Harrisburg, Pennsylvania, USA
Distance from station: NE 50mi, 80km
Updated: Wed, 24-Jul-2024 11:56pm EDT
Mostly cloudy
Mostly cloudy
 Wind from NW
Wind: NW 6 mph , 9 km/h
Temperature: 79°F , 26°C
Dew Point: 68°F , 20°C
Humidity: 70%
Barometer: 30.08 inHg , 1018.6 hPa
Clouds: Mostly cloudy
Visibility: 10 miles , 16 km
Cloud details: Mostly cloudy 7500 ft
2024/07/25 03:56 KCXY 250356Z AUTO 31005KT 10SM R08/6000FT BKN075 26/20 A3008 RMK AO2 SLP185 T02610200
 
KMDT - Middletown, Pennsylvania, USA
Distance from station: NE 52mi, 84km
Updated: Wed, 24-Jul-2024 11:56pm EDT
Mostly cloudy
Mostly cloudy
 Wind from SSW
Wind: SSW 7 mph , 11 km/h
Temperature: 79°F , 26°C
Dew Point: 70°F , 21°C
Humidity: 74%
Barometer: 30.07 inHg , 1018.3 hPa
Clouds: Mostly cloudy
Visibility: 10 miles , 16 km
Cloud details: Partly cloudy 5500 ft
Mostly cloudy 7500 ft
Mostly cloudy 25000 ft
2024/07/25 03:56 KMDT 250356Z 20006KT 10SM SCT055 BKN075 BKN250 26/21 A3007 RMK AO2 SLP181 T02560211
KOKV - Winchester Rgnl, Virginia, USA
Distance from station: SW 53mi, 85km
Updated: Thu, 25-Jul-2024 12:15am EDT
Clear
Clear
 Wind from calm
Wind: Calm
Temperature: 73°F , 23°C
Dew Point: 68°F , 20°C
Humidity: 83%
Barometer: 30.11 inHg , 1019.6 hPa
Clouds: Clear
Visibility: 10 miles , 16 km
2024/07/25 04:15 KOKV 250415Z AUTO 00000KT 10SM CLR 23/20 A3011 RMK AO2
KAOO - Altoona, Pennsylvania, USA
Distance from station: NW 56mi, 90km
Updated: Wed, 24-Jul-2024 11:53pm EDT
Clear
Clear
 Wind from W
Wind: W 7 mph , 11 km/h
Temperature: 73°F , 23°C
Dew Point: 63°F , 17°C
Humidity: 69%
Barometer: 30.14 inHg , 1020.7 hPa
Clouds: Clear
Visibility: 10 miles , 16 km
2024/07/25 03:53 KAOO 250353Z AUTO 27006KT 10SM CLR 23/17 A3014 RMK AO2 SLP195 T02280172
 
KIAD - Wash Dc/Dulles, Virginia, USA
Distance from station: S 56mi, 90km
Updated: Wed, 24-Jul-2024 11:52pm EDT
Mostly cloudy
Mostly cloudy
 Wind from calm
Wind: Calm
Temperature: 73°F , 23°C
Dew Point: 72°F , 22°C
Humidity: 94%
Barometer: 30.10 inHg , 1019.3 hPa
Clouds: Mostly cloudy
Visibility: 10 miles , 16 km
Cloud details: Partly cloudy 9500 ft
Mostly cloudy 24000 ft
2024/07/25 03:52 KIAD 250352Z 00000KT 10SM SCT095 BKN240 23/22 A3010 RMK AO2 SLP189 T02280217
KHMZ - Bedford, Pennsylvania, USA
Distance from station: WNW 56mi, 91km
Updated: Thu, 25-Jul-2024 12:15am EDT
Clear
Clear
 Wind from calm
Wind: Calm
Temperature: 68°F , 20°C
Dew Point: 64°F , 18°C
Humidity: 88%
Barometer: 30.13 inHg , 1020.3 hPa
Clouds: Clear
Visibility: 10 miles , 16 km
2024/07/25 04:15 KHMZ 250415Z AUTO 00000KT 10SM CLR 20/18 A3013 RMK AO2 T02010179
KBWI - Balto/Wash Intl, Maryland, USA
Distance from station: SE 61mi, 98km
Updated: Wed, 24-Jul-2024 11:54pm EDT
Mostly cloudy
Mostly cloudy
 Wind from WSW
Wind: WSW 3 mph , 6 km/h
Temperature: 75°F , 24°C
Dew Point: 73°F , 23°C
Humidity: 94%
Barometer: 30.08 inHg , 1018.6 hPa
Clouds: Mostly cloudy
Visibility: 10 miles , 16 km
Cloud details: Few Clouds 11000 ft
Partly cloudy 17000 ft
Mostly cloudy 25000 ft
2024/07/25 03:54 KBWI 250354Z 24003KT 10SM FEW110 SCT170 BKN250 24/23 A3008 RMK AO2 SLP185 T02440233
 
KFME - Fort Meade, Maryland, USA
Distance from station: SE 62mi, 100km
Updated: Thu, 25-Jul-2024 12:09am EDT
Clear
Clear
 Wind from calm
Wind: Calm
Temperature: 72°F , 22°C
Dew Point: 72°F , 22°C
Humidity: 100%
Barometer: 30.11 inHg , 1019.6 hPa
Clouds: Clear
Visibility: 3 miles , 5 km
2024/07/25 04:09 KFME 250409Z AUTO 00000KT 3SM CLR 22/22 A3011 RMK AO1
KCGS - College Park, Maryland, USA
Distance from station: SE 62mi, 101km
Updated: Thu, 25-Jul-2024 12:10am EDT
Clear
Clear
 Wind from calm
Wind: Calm
Temperature: 73°F , 23°C
Dew Point: 73°F , 23°C
Humidity: 100%
Barometer: 30.10 inHg , 1019.3 hPa
Clouds: Clear
Visibility: 10 miles , 16 km
2024/07/25 04:10 KCGS 250410Z AUTO 00000KT 10SM CLR 23/23 A3010 RMK AO2 T02330228
KCBE - Cumberland Reg, Maryland, USA
Distance from station: W 65mi, 105km
Updated: Thu, 25-Jul-2024 12:05am EDT
Clear
Clear
 Wind from calm
Wind: Calm
Temperature: 73°F , 23°C
Dew Point: 64°F , 18°C
Humidity: 74%
Barometer: 30.16 inHg , 1021.3 hPa
Clouds: Clear
Visibility: 10 miles , 16 km
2024/07/25 04:05 KCBE 250405Z AUTO 00000KT 10SM CLR 23/18 A3016 RMK AO2 T02300182
 
KRVL - Reedsville, Pennsylvania, USA
Distance from station: N 65mi, 105km
Updated: Thu, 25-Jul-2024 12:15am EDT
Mist, Clear
Mist, Clear
 Wind from calm
Wind: Calm
Temperature: 68°F , 20°C
Dew Point: 68°F , 20°C
Humidity: 100%
Barometer: 30.11 inHg , 1019.6 hPa
Summary: Mist
Clouds: Clear
Visibility: 6 miles , 10 km
2024/07/25 04:15 KRVL 250415Z AUTO 00000KT 6SM BR CLR 20/20 A3011 RMK AO2
KMTN - Baltimore/Martin, Maryland, USA
Distance from station: ESE 67mi, 108km
Updated: Thu, 25-Jul-2024 12:08am EDT
Clear
Clear
 Wind from calm
Wind: Calm
Temperature: 77°F , 25°C
Dew Point: 73°F , 23°C
Humidity: 89%
Barometer: 30.09 inHg , 1019 hPa
Clouds: Clear
Visibility: 10 miles , 16 km
2024/07/25 04:08 KMTN 250408Z AUTO 00000KT 10SM CLR 25/23 A3009 RMK AO2